首页
METAR-TAF:

METAR-TAF

机场 :

新潟機場

新潟, 日本

纬度: 37-57N, 经度: 139-07E, 海拔: 1米

当前天气观测

该预报发布于8小时和50分钟前的12:00 UTC
风速4节,风向南转南东
温度 9°C
湿度 66%
气压 1014 hPa
能见度10公里或以上
少量云层高于7000英尺

METAR: RJSN 071200Z 16004KT 9999 FEW070 09/03 Q1014

时间: 05:50 (20:50 UTC)

预报

该预报发布于3小时和45分钟前的17:05 UTC
预报有效从07日的 18点(UTC)到 09日的 00点(UTC)
风速4节,风向
能见度10公里或以上
少量云层高于1500英尺
成为
从 07日的 23点(UTC)到 08日的 01点(UTC)
风速6节,风向西南
成为
从 08日的 04点(UTC)到 08日的 06点(UTC)
风速14节,风向西北
成为
从 08日的 15点(UTC)到 08日的 18点(UTC)
风速8节,风向南转西南

TAF: RJSN 071705Z 0718/0900 17004KT 9999 FEW015 BECMG 0723/0801 23006KT BECMG 0804/0806 32014KT BECMG 0815/0818 20008KT

超过4000个机场的气象观测和天气预报(METAR&TAF报告)。

可查询的气象台以黄色和红色小点在地图上表示。

将鼠标移到小点上方,可查看气象台名称。

然后点击查看天气观测和预报。

如需切换地图:点击带黑十字的绿色按钮放大地图;点击带横线的绿色按钮缩小地图;或者点击绿色箭头查看邻近地区的地图。


METAR-TAF: